Time,TemperatureF,DewpointF,PressureIn,WindDirection,WindDirectionDegrees,WindSpeedMPH,WindSpeedGustMPH,Humidity,HourlyPrecipIn,Conditions,Clouds,dailyrainin,SoftwareType,DateUTC
2013-01-09 00:01:00,46.4,44.0,29.84,SSW,203,0.7,2.5,91,0.00,,,0.00,WUHU216HW,2013-01-09 08:01:00,
2013-01-09 00:06:00,46.4,44.0,29.84,SSW,203,1.1,2.5,91,0.00,,,0.00,WUHU216HW,2013-01-09 08:06:00,
2013-01-09 00:11:00,46.4,44.0,29.84,SW,225,0.0,2.5,91,0.00,,,0.00,WUHU216HW,2013-01-09 08:11:00,
2013-01-09 00:16:00,46.4,44.0,29.84,SW,225,0.0,1.1,91,0.00,,,0.00,WUHU216HW,2013-01-09 08:16:00,
2013-01-09 00:21:00,46.4,44.0,29.83,SW,225,1.3,1.3,91,0.00,,,0.00,WUHU216HW,2013-01-09 08:21:00,
2013-01-09 00:26:00,46.3,43.8,29.83,ESE,113,1.8,1.8,91,0.00,,,0.00,WUHU216HW,2013-01-09 08:26:00,
2013-01-09 00:31:00,46.3,43.8,29.84,SSE,158,3.4,3.4,91,0.00,,,0.00,WUHU216HW,2013-01-09 08:31:00,
2013-01-09 00:36:00,46.3,43.8,29.83,SE,135,1.6,3.4,91,0.00,,,0.00,WUHU216HW,2013-01-09 08:36:00,
2013-01-09 00:42:00,46.1,43.7,29.82,East,90,1.1,2.5,91,0.00,,,0.00,WUHU216HW,2013-01-09 08:42:00,
2013-01-09 00:47:00,46.1,43.7,29.82,East,90,1.1,1.8,91,0.00,,,0.00,WUHU216HW,2013-01-09 08:47:00,
2013-01-09 00:52:00,46.1,43.7,29.83,West,270,2.2,2.2,91,0.00,,,0.00,WUHU216HW,2013-01-09 08:52:00,
2013-01-09 00:57:00,46.3,44.1,29.82,NW,315,0.0,2.5,92,0.00,,,0.00,WUHU216HW,2013-01-09 08:57:00,
2013-01-09 01:02:00,46.4,44.3,29.83,NW,315,0.0,2.5,92,0.00,,,0.00,WUHU216HW,2013-01-09 09:02:00,
2013-01-09 01:07:00,46.4,44.3,29.84,SW,225,2.0,2.0,92,0.00,,,0.00,WUHU216HW,2013-01-09 09:07:00,
2013-01-09 01:12:00,46.4,44.3,29.85,SSW,203,1.6,3.4,92,0.00,,,0.00,WUHU216HW,2013-01-09 09:12:00,
2013-01-09 01:17:00,46.4,44.3,29.83,WSW,248,2.9,4.7,92,0.00,,,0.00,WUHU216HW,2013-01-09 09:17:00,
2013-01-09 01:22:00,46.6,44.5,29.83,WSW,248,3.1,4.7,92,0.00,,,0.00,WUHU216HW,2013-01-09 09:22:00,
2013-01-09 01:27:00,46.8,44.6,29.84,SW,225,1.3,4.0,92,0.00,,,0.00,WUHU216HW,2013-01-09 09:27:00,
2013-01-09 01:33:00,47.0,44.8,29.83,SSE,158,4.9,4.9,92,0.00,,,0.00,WUHU216HW,2013-01-09 09:33:00,
2013-01-09 01:38:00,47.0,44.8,29.83,SE,135,3.4,6.0,92,0.00,,,0.00,WUHU216HW,2013-01-09 09:38:00,
2013-01-09 01:43:00,46.8,44.6,29.84,SE,135,4.9,6.0,92,0.00,,,0.00,WUHU216HW,2013-01-09 09:43:00,
2013-01-09 01:48:00,47.0,44.8,29.82,SE,135,3.4,6.3,92,0.00,,,0.00,WUHU216HW,2013-01-09 09:48:00,
2013-01-09 01:53:00,47.2,44.7,29.82,SE,135,2.5,6.3,91,0.00,,,0.00,WUHU216HW,2013-01-09 09:53:00,
2013-01-09 01:58:00,47.2,44.7,29.83,SE,135,2.5,6.3,91,0.00,,,0.00,WUHU216HW,2013-01-09 09:58:00,
2013-01-09 02:03:00,47.2,44.7,29.83,SSE,158,5.8,5.8,91,0.00,,,0.00,WUHU216HW,2013-01-09 10:03:00,
2013-01-09 02:08:00,47.2,44.7,29.83,SE,135,3.6,5.8,91,0.00,,,0.00,WUHU216HW,2013-01-09 10:08:00,
2013-01-09 02:13:00,47.2,44.7,29.81,East,90,3.4,5.8,91,0.00,,,0.00,WUHU216HW,2013-01-09 10:13:00,
2013-01-09 02:18:00,46.8,44.4,29.81,ESE,113,3.1,4.9,91,0.00,,,0.00,WUHU216HW,2013-01-09 10:18:00,
2013-01-09 02:23:00,47.0,44.6,29.81,SE,135,5.8,5.8,91,0.00,,,0.00,WUHU216HW,2013-01-09 10:23:00,
2013-01-09 02:29:00,47.0,44.6,29.81,SE,135,8.3,8.3,91,0.00,,,0.00,WUHU216HW,2013-01-09 10:29:00,
2013-01-09 02:34:00,47.0,44.6,29.80,SSE,158,4.0,8.3,91,0.00,,,0.00,WUHU216HW,2013-01-09 10:34:00,
2013-01-09 02:39:00,47.0,44.6,29.81,SSW,203,3.1,8.3,91,0.00,,,0.00,WUHU216HW,2013-01-09 10:39:00,
2013-01-09 02:44:00,47.0,44.6,29.80,South,180,4.7,5.4,91,0.00,,,0.00,WUHU216HW,2013-01-09 10:44:00,
2013-01-09 02:49:00,47.0,44.6,29.80,SE,135,3.4,5.4,91,0.00,,,0.00,WUHU216HW,2013-01-09 10:49:00,
2013-01-09 02:54:00,47.0,44.6,29.79,ESE,113,4.3,5.4,91,0.00,,,0.00,WUHU216HW,2013-01-09 10:54:00,
2013-01-09 02:59:00,46.8,44.4,29.80,SE,135,5.4,5.4,91,0.00,,,0.00,WUHU216HW,2013-01-09 10:59:00,
2013-01-09 03:04:00,46.8,44.4,29.79,South,180,7.6,7.6,91,0.00,,,0.00,WUHU216HW,2013-01-09 11:04:00,
2013-01-09 03:09:00,46.8,44.4,29.78,South,180,4.7,8.1,91,0.00,,,0.00,WUHU216HW,2013-01-09 11:09:00,
2013-01-09 03:15:00,46.8,44.4,29.79,South,180,7.4,8.1,91,0.00,,,0.00,WUHU216HW,2013-01-09 11:15:00,
2013-01-09 03:19:00,46.8,44.4,29.78,SSE,158,5.6,7.6,91,0.00,,,0.00,WUHU216HW,2013-01-09 11:19:00,
2013-01-09 03:25:00,46.8,44.4,29.78,SW,225,4.0,7.6,91,0.00,,,0.00,WUHU216HW,2013-01-09 11:25:00,
2013-01-09 03:30:00,46.8,44.4,29.77,South,180,5.8,6.9,91,0.00,,,0.00,WUHU216HW,2013-01-09 11:30:00,
2013-01-09 03:35:00,46.8,44.4,29.77,SSE,158,6.3,7.6,91,0.00,,,0.00,WUHU216HW,2013-01-09 11:35:00,
2013-01-09 03:40:00,46.8,44.4,29.76,SSW,203,6.5,8.5,91,0.00,,,0.00,WUHU216HW,2013-01-09 11:40:00,
2013-01-09 03:45:00,46.8,44.4,29.75,SE,135,5.1,10.1,91,0.00,,,0.00,WUHU216HW,2013-01-09 11:45:00,
2013-01-09 03:50:00,47.0,44.3,29.75,SSE,158,8.5,10.1,90,0.00,,,0.00,WUHU216HW,2013-01-09 11:50:00,
2013-01-09 03:55:00,47.2,44.5,29.74,SSE,158,2.5,11.4,90,0.00,,,0.00,WUHU216HW,2013-01-09 11:55:00,
2013-01-09 04:00:00,47.2,44.5,29.74,South,180,6.3,11.4,90,0.00,,,0.00,WUHU216HW,2013-01-09 12:00:00,
2013-01-09 04:05:00,47.2,44.5,29.74,SSE,158,4.0,10.5,90,0.00,,,0.00,WUHU216HW,2013-01-09 12:05:00,
2013-01-09 04:10:00,47.3,44.6,29.74,South,180,4.7,10.5,90,0.00,,,0.00,WUHU216HW,2013-01-09 12:10:00,
2013-01-09 04:16:00,47.3,44.6,29.74,SSW,203,4.5,8.7,90,0.00,,,0.00,WUHU216HW,2013-01-09 12:16:00,
2013-01-09 04:21:00,47.3,44.6,29.74,South,180,2.5,9.2,90,0.00,,,0.00,WUHU216HW,2013-01-09 12:21:00,
2013-01-09 04:26:00,47.3,44.6,29.73,SE,135,6.9,9.4,90,0.00,,,0.00,WUHU216HW,2013-01-09 12:26:00,
2013-01-09 04:31:00,47.3,44.6,29.72,SSE,158,8.5,11.4,90,0.00,,,0.00,WUHU216HW,2013-01-09 12:31:00,
2013-01-09 04:36:00,47.3,44.6,29.72,SE,135,7.4,11.4,90,0.00,,,0.00,WUHU216HW,2013-01-09 12:36:00,
2013-01-09 04:41:00,47.3,44.6,29.72,SE,135,7.4,8.9,90,0.00,,,0.00,WUHU216HW,2013-01-09 12:41:00,
2013-01-09 04:46:00,47.2,44.5,29.72,SSW,203,7.8,10.1,90,0.00,,,0.00,WUHU216HW,2013-01-09 12:46:00,
2013-01-09 04:51:00,47.2,44.5,29.72,South,180,4.3,10.1,90,0.00,,,0.00,WUHU216HW,2013-01-09 12:51:00,
2013-01-09 04:56:00,47.2,44.2,29.71,SSE,158,7.4,8.5,89,0.00,,,0.00,WUHU216HW,2013-01-09 12:56:00,
2013-01-09 05:01:00,47.2,44.5,29.71,SE,135,6.3,8.5,90,0.00,,,0.00,WUHU216HW,2013-01-09 13:01:00,
2013-01-09 05:06:00,47.0,44.3,29.70,SSE,158,4.9,10.5,90,0.00,,,0.00,WUHU216HW,2013-01-09 13:06:00,
2013-01-09 05:11:00,47.0,44.3,29.70,SE,135,4.9,11.2,90,0.00,,,0.00,WUHU216HW,2013-01-09 13:11:00,
2013-01-09 05:16:00,47.0,44.3,29.70,SW,225,4.0,11.2,90,0.00,,,0.00,WUHU216HW,2013-01-09 13:16:00,
2013-01-09 05:21:00,47.0,44.3,29.69,SSE,158,6.9,10.7,90,0.00,,,0.00,WUHU216HW,2013-01-09 13:21:00,
2013-01-09 05:26:00,47.0,44.0,29.69,South,180,4.7,10.7,89,0.00,,,0.00,WUHU216HW,2013-01-09 13:26:00,
2013-01-09 05:32:00,47.0,44.0,29.69,SW,225,6.3,9.8,89,0.00,,,0.00,WUHU216HW,2013-01-09 13:32:00,
2013-01-09 05:37:00,47.0,44.0,29.68,SSE,158,6.3,8.1,89,0.00,,,0.00,WUHU216HW,2013-01-09 13:37:00,
2013-01-09 05:42:00,47.0,44.0,29.68,SSW,203,4.5,7.6,89,0.00,,,0.00,WUHU216HW,2013-01-09 13:42:00,
2013-01-09 05:47:00,47.0,43.7,29.68,SSW,203,6.7,8.3,88,0.00,,,0.00,WUHU216HW,2013-01-09 13:47:00,
2013-01-09 05:52:00,47.2,43.8,29.67,SSE,158,6.7,8.5,88,0.00,,,0.00,WUHU216HW,2013-01-09 13:52:00,
2013-01-09 05:57:00,47.2,43.8,29.67,SSE,158,7.6,9.2,88,0.00,,,0.00,WUHU216HW,2013-01-09 13:57:00,
2013-01-09 06:02:00,47.2,43.8,29.67,South,180,7.2,9.4,88,0.00,,,0.00,WUHU216HW,2013-01-09 14:02:00,
2013-01-09 06:07:00,47.3,43.7,29.66,SE,135,11.6,11.6,87,0.00,,,0.00,WUHU216HW,2013-01-09 14:07:00,
2013-01-09 06:12:00,47.5,43.8,29.66,SE,135,9.2,11.6,87,0.00,,,0.00,WUHU216HW,2013-01-09 14:12:00,
2013-01-09 06:17:00,47.5,43.8,29.65,SSE,158,8.3,15.4,87,0.00,,,0.00,WUHU216HW,2013-01-09 14:17:00,
2013-01-09 06:22:00,47.9,43.9,29.65,SSE,158,4.7,15.4,86,0.00,,,0.00,WUHU216HW,2013-01-09 14:22:00,
2013-01-09 06:27:00,47.9,43.9,29.65,SSW,203,5.4,15.2,86,0.00,,,0.00,WUHU216HW,2013-01-09 14:27:00,
2013-01-09 06:32:00,47.9,43.9,29.65,SSW,203,5.6,10.5,86,0.00,,,0.00,WUHU216HW,2013-01-09 14:32:00,
2013-01-09 06:37:00,47.9,43.9,29.66,SSW,203,9.2,10.5,86,0.00,,,0.00,WUHU216HW,2013-01-09 14:37:00,
2013-01-09 06:42:00,47.9,43.6,29.67,WSW,248,5.4,9.2,85,0.00,,,0.00,WUHU216HW,2013-01-09 14:42:00,
2013-01-09 06:47:00,48.1,43.7,29.67,WSW,248,8.7,11.4,85,0.00,,,0.00,WUHU216HW,2013-01-09 14:47:00,
2013-01-09 06:52:00,47.9,44.2,29.67,SSE,158,5.4,11.4,87,0.00,,,0.00,WUHU216HW,2013-01-09 14:52:00,
2013-01-09 06:57:00,47.9,44.6,29.68,WSW,248,9.2,9.4,88,0.00,,,0.00,WUHU216HW,2013-01-09 14:57:00,
2013-01-09 07:02:00,47.5,44.5,29.69,WSW,248,6.5,9.2,89,0.00,,,0.00,WUHU216HW,2013-01-09 15:02:00,
2013-01-09 07:07:00,47.2,44.5,29.71,West,270,7.6,9.2,90,0.00,,,0.00,WUHU216HW,2013-01-09 15:07:00,
2013-01-09 07:12:00,45.7,43.0,29.72,SW,225,1.8,7.6,90,0.00,,,0.00,WUHU216HW,2013-01-09 15:12:00,
2013-01-09 07:17:00,45.0,42.6,29.71,SW,225,1.3,6.7,91,0.00,,,0.00,WUHU216HW,2013-01-09 15:17:00,
2013-01-09 07:23:00,44.6,42.2,29.71,WSW,248,5.4,5.4,91,0.00,,,0.00,WUHU216HW,2013-01-09 15:23:00,
2013-01-09 07:28:00,44.5,41.8,29.71,SW,225,3.4,6.3,90,0.00,,,0.00,WUHU216HW,2013-01-09 15:28:00,
2013-01-09 07:33:00,44.5,41.8,29.72,SW,225,1.6,7.2,90,0.00,,,0.00,WUHU216HW,2013-01-09 15:33:00,